sensor_id;sensor_type;location;lat;lon;timestamp;temperature;humidity
43320;DHT22;28914;48.722;9.332;2023-02-22T00:01:45;7.10;66.50
43320;DHT22;28914;48.722;9.332;2023-02-22T00:07:28;7.10;67.20
43320;DHT22;28914;48.722;9.332;2023-02-22T00:12:52;7.00;67.10
43320;DHT22;28914;48.722;9.332;2023-02-22T00:18:13;7.00;69.30
43320;DHT22;28914;48.722;9.332;2023-02-22T00:23:33;6.90;68.50
43320;DHT22;28914;48.722;9.332;2023-02-22T00:28:53;6.80;68.20
43320;DHT22;28914;48.722;9.332;2023-02-22T00:34:13;6.80;68.20
43320;DHT22;28914;48.722;9.332;2023-02-22T00:39:32;6.80;68.50
43320;DHT22;28914;48.722;9.332;2023-02-22T00:44:51;6.70;68.20
43320;DHT22;28914;48.722;9.332;2023-02-22T00:50:11;6.70;68.40
43320;DHT22;28914;48.722;9.332;2023-02-22T00:55:32;6.60;68.30
43320;DHT22;28914;48.722;9.332;2023-02-22T01:00:51;6.60;68.40
43320;DHT22;28914;48.722;9.332;2023-02-22T01:06:10;6.60;68.60
43320;DHT22;28914;48.722;9.332;2023-02-22T01:11:30;6.60;68.50
43320;DHT22;28914;48.722;9.332;2023-02-22T01:16:49;6.60;68.60
43320;DHT22;28914;48.722;9.332;2023-02-22T01:22:09;6.50;69.60
43320;DHT22;28914;48.722;9.332;2023-02-22T01:27:28;6.40;69.50
43320;DHT22;28914;48.722;9.332;2023-02-22T01:32:48;6.30;69.70
43320;DHT22;28914;48.722;9.332;2023-02-22T01:38:09;6.30;69.50
43320;DHT22;28914;48.722;9.332;2023-02-22T01:43:30;6.20;69.30
43320;DHT22;28914;48.722;9.332;2023-02-22T01:54:28;6.10;69.70
43320;DHT22;28914;48.722;9.332;2023-02-22T01:59:51;6.10;71.00
43320;DHT22;28914;48.722;9.332;2023-02-22T02:05:12;6.00;71.00
43320;DHT22;28914;48.722;9.332;2023-02-22T02:10:31;6.00;70.80
43320;DHT22;28914;48.722;9.332;2023-02-22T02:15:53;5.90;70.50
43320;DHT22;28914;48.722;9.332;2023-02-22T02:27:33;5.90;72.20
43320;DHT22;28914;48.722;9.332;2023-02-22T02:33:10;5.90;72.70
43320;DHT22;28914;48.722;9.332;2023-02-22T02:38:54;5.80;73.00
43320;DHT22;28914;48.722;9.332;2023-02-22T02:44:35;5.80;72.50
43320;DHT22;28914;48.722;9.332;2023-02-22T02:50:06;5.80;72.20
43320;DHT22;28914;48.722;9.332;2023-02-22T02:55:29;5.80;71.90
43320;DHT22;28914;48.722;9.332;2023-02-22T03:00:52;5.80;71.60
43320;DHT22;28914;48.722;9.332;2023-02-22T03:28:46;5.70;72.00
43320;DHT22;28914;48.722;9.332;2023-02-22T03:34:13;5.70;71.60
43320;DHT22;28914;48.722;9.332;2023-02-22T03:39:34;5.70;71.80
43320;DHT22;28914;48.722;9.332;2023-02-22T03:44:57;5.60;71.60
43320;DHT22;28914;48.722;9.332;2023-02-22T03:50:22;5.60;71.70
43320;DHT22;28914;48.722;9.332;2023-02-22T03:55:46;5.60;71.60
43320;DHT22;28914;48.722;9.332;2023-02-22T04:01:11;5.50;71.80
43320;DHT22;28914;48.722;9.332;2023-02-22T04:06:30;5.50;71.80
43320;DHT22;28914;48.722;9.332;2023-02-22T04:11:49;5.40;71.80
43320;DHT22;28914;48.722;9.332;2023-02-22T04:17:08;5.40;71.90
43320;DHT22;28914;48.722;9.332;2023-02-22T04:22:28;5.40;71.90
43320;DHT22;28914;48.722;9.332;2023-02-22T04:27:47;5.30;72.10
43320;DHT22;28914;48.722;9.332;2023-02-22T04:33:07;5.30;72.70
43320;DHT22;28914;48.722;9.332;2023-02-22T04:38:26;5.20;72.80
43320;DHT22;28914;48.722;9.332;2023-02-22T04:43:45;5.20;73.20
43320;DHT22;28914;48.722;9.332;2023-02-22T04:49:05;5.10;73.70
43320;DHT22;28914;48.722;9.332;2023-02-22T04:54:24;5.10;73.80
43320;DHT22;28914;48.722;9.332;2023-02-22T04:59:43;5.10;74.10
43320;DHT22;28914;48.722;9.332;2023-02-22T05:05:03;5.10;74.30
43320;DHT22;28914;48.722;9.332;2023-02-22T05:10:23;5.00;74.20
43320;DHT22;28914;48.722;9.332;2023-02-22T05:15:42;5.00;74.20
43320;DHT22;28914;48.722;9.332;2023-02-22T05:21:02;5.10;74.10
43320;DHT22;28914;48.722;9.332;2023-02-22T05:26:21;5.10;74.00
43320;DHT22;28914;48.722;9.332;2023-02-22T05:31:40;5.10;74.00
43320;DHT22;28914;48.722;9.332;2023-02-22T05:36:59;5.10;74.20
43320;DHT22;28914;48.722;9.332;2023-02-22T05:42:18;5.10;74.20
43320;DHT22;28914;48.722;9.332;2023-02-22T05:47:39;5.10;74.50
43320;DHT22;28914;48.722;9.332;2023-02-22T05:52:58;5.10;75.20
43320;DHT22;28914;48.722;9.332;2023-02-22T05:58:17;5.10;75.30
43320;DHT22;28914;48.722;9.332;2023-02-22T06:03:36;5.10;75.60
43320;DHT22;28914;48.722;9.332;2023-02-22T06:08:56;5.10;75.70
43320;DHT22;28914;48.722;9.332;2023-02-22T06:14:15;5.10;76.80
43320;DHT22;28914;48.722;9.332;2023-02-22T06:19:35;5.20;76.20
43320;DHT22;28914;48.722;9.332;2023-02-22T06:24:54;5.20;76.10
43320;DHT22;28914;48.722;9.332;2023-02-22T06:30:14;5.20;75.80
43320;DHT22;28914;48.722;9.332;2023-02-22T06:35:34;5.20;76.30
43320;DHT22;28914;48.722;9.332;2023-02-22T06:40:53;5.20;76.30
43320;DHT22;28914;48.722;9.332;2023-02-22T06:46:13;5.30;76.50
43320;DHT22;28914;48.722;9.332;2023-02-22T06:51:36;5.30;76.90
43320;DHT22;28914;48.722;9.332;2023-02-22T06:56:55;5.40;76.80
43320;DHT22;28914;48.722;9.332;2023-02-22T07:02:15;5.50;78.10
43320;DHT22;28914;48.722;9.332;2023-02-22T07:07:34;5.60;78.80
43320;DHT22;28914;48.722;9.332;2023-02-22T07:12:53;5.80;78.70
43320;DHT22;28914;48.722;9.332;2023-02-22T07:18:13;5.90;78.50
43320;DHT22;28914;48.722;9.332;2023-02-22T07:23:33;6.10;78.20
43320;DHT22;28914;48.722;9.332;2023-02-22T07:28:53;6.30;77.90
43320;DHT22;28914;48.722;9.332;2023-02-22T07:34:12;6.60;77.70
43320;DHT22;28914;48.722;9.332;2023-02-22T07:39:32;6.80;77.30
43320;DHT22;28914;48.722;9.332;2023-02-22T07:44:52;7.10;77.00
43320;DHT22;28914;48.722;9.332;2023-02-22T07:50:15;7.40;76.60
43320;DHT22;28914;48.722;9.332;2023-02-22T07:55:35;7.60;76.10
43320;DHT22;28914;48.722;9.332;2023-02-22T08:00:54;7.90;75.50
43320;DHT22;28914;48.722;9.332;2023-02-22T08:06:13;8.20;74.80
43320;DHT22;28914;48.722;9.332;2023-02-22T08:11:32;8.40;74.10
43320;DHT22;28914;48.722;9.332;2023-02-22T08:16:52;8.60;73.60
43320;DHT22;28914;48.722;9.332;2023-02-22T08:22:11;8.80;73.20
43320;DHT22;28914;48.722;9.332;2023-02-22T08:27:30;9.00;73.20
43320;DHT22;28914;48.722;9.332;2023-02-22T08:32:51;9.30;72.80
43320;DHT22;28914;48.722;9.332;2023-02-22T08:38:20;9.60;72.30
43320;DHT22;28914;48.722;9.332;2023-02-22T08:43:39;9.90;71.70
43320;DHT22;28914;48.722;9.332;2023-02-22T08:48:58;10.20;71.00
43320;DHT22;28914;48.722;9.332;2023-02-22T08:54:18;10.50;70.40
43320;DHT22;28914;48.722;9.332;2023-02-22T08:59:38;10.80;70.00
43320;DHT22;28914;48.722;9.332;2023-02-22T09:04:57;11.10;70.20
43320;DHT22;28914;48.722;9.332;2023-02-22T09:10:21;11.50;68.90
43320;DHT22;28914;48.722;9.332;2023-02-22T09:15:42;11.90;68.60
43320;DHT22;28914;48.722;9.332;2023-02-22T09:21:01;12.30;68.30
43320;DHT22;28914;48.722;9.332;2023-02-22T09:26:21;12.80;66.90
43320;DHT22;28914;48.722;9.332;2023-02-22T09:31:41;13.30;67.00
43320;DHT22;28914;48.722;9.332;2023-02-22T09:37:00;13.90;67.20
43320;DHT22;28914;48.722;9.332;2023-02-22T09:42:35;14.90;66.30
43320;DHT22;28914;48.722;9.332;2023-02-22T09:47:59;16.20;65.80
43320;DHT22;28914;48.722;9.332;2023-02-22T09:53:34;17.60;65.50
43320;DHT22;28914;48.722;9.332;2023-02-22T09:59:02;19.40;64.10
43320;DHT22;28914;48.722;9.332;2023-02-22T10:04:41;21.40;62.20
43320;DHT22;28914;48.722;9.332;2023-02-22T10:10:03;23.40;57.60
43320;DHT22;28914;48.722;9.332;2023-02-22T10:15:41;25.00;54.80
43320;DHT22;28914;48.722;9.332;2023-02-22T10:26:26;26.80;51.20
43320;DHT22;28914;48.722;9.332;2023-02-22T10:31:52;27.70;49.50
43320;DHT22;28914;48.722;9.332;2023-02-22T10:37:24;28.40;46.70
43320;DHT22;28914;48.722;9.332;2023-02-22T10:42:44;28.20;44.50
43320;DHT22;28914;48.722;9.332;2023-02-22T10:48:08;28.10;45.50
43320;DHT22;28914;48.722;9.332;2023-02-22T10:53:30;28.20;45.50
43320;DHT22;28914;48.722;9.332;2023-02-22T10:58:57;28.30;44.80
43320;DHT22;28914;48.722;9.332;2023-02-22T11:04:21;28.10;43.30
43320;DHT22;28914;48.722;9.332;2023-02-22T11:10:06;27.60;42.70
43320;DHT22;28914;48.722;9.332;2023-02-22T11:15:29;26.60;41.30
43320;DHT22;28914;48.722;9.332;2023-02-22T11:20:58;25.60;43.00
43320;DHT22;28914;48.722;9.332;2023-02-22T11:26:18;25.00;43.40
43320;DHT22;28914;48.722;9.332;2023-02-22T11:31:42;24.50;44.30
43320;DHT22;28914;48.722;9.332;2023-02-22T11:43:14;24.10;45.00
43320;DHT22;28914;48.722;9.332;2023-02-22T11:48:36;24.00;45.10
43320;DHT22;28914;48.722;9.332;2023-02-22T11:59:37;23.90;45.40
43320;DHT22;28914;48.722;9.332;2023-02-22T12:16:43;22.80;45.50
43320;DHT22;28914;48.722;9.332;2023-02-22T12:28:31;22.00;46.20
43320;DHT22;28914;48.722;9.332;2023-02-22T12:34:12;21.60;46.50
43320;DHT22;28914;48.722;9.332;2023-02-22T12:45:20;21.20;47.50
43320;DHT22;28914;48.722;9.332;2023-02-22T12:50:42;21.10;48.00
43320;DHT22;28914;48.722;9.332;2023-02-22T12:56:24;21.00;47.90
43320;DHT22;28914;48.722;9.332;2023-02-22T13:01:55;20.80;47.90
43320;DHT22;28914;48.722;9.332;2023-02-22T13:07:24;20.60;48.30
43320;DHT22;28914;48.722;9.332;2023-02-22T13:13:03;20.60;48.50
43320;DHT22;28914;48.722;9.332;2023-02-22T13:24:13;20.30;48.60
43320;DHT22;28914;48.722;9.332;2023-02-22T13:29:45;20.20;48.70
43320;DHT22;28914;48.722;9.332;2023-02-22T13:41:32;19.90;49.00
43320;DHT22;28914;48.722;9.332;2023-02-22T13:47:46;19.80;49.20
43320;DHT22;28914;48.722;9.332;2023-02-22T13:52:47;19.90;49.30
43320;DHT22;28914;48.722;9.332;2023-02-22T13:58:09;19.80;49.10
43320;DHT22;28914;48.722;9.332;2023-02-22T14:03:33;19.70;48.80
43320;DHT22;28914;48.722;9.332;2023-02-22T14:08:54;19.60;48.90
43320;DHT22;28914;48.722;9.332;2023-02-22T14:14:14;19.50;48.90
43320;DHT22;28914;48.722;9.332;2023-02-22T14:19:35;19.40;48.90
43320;DHT22;28914;48.722;9.332;2023-02-22T14:24:56;19.30;49.70
43320;DHT22;28914;48.722;9.332;2023-02-22T14:30:28;19.20;49.30
43320;DHT22;28914;48.722;9.332;2023-02-22T14:35:49;19.00;49.40
43320;DHT22;28914;48.722;9.332;2023-02-22T14:41:08;18.90;49.40
43320;DHT22;28914;48.722;9.332;2023-02-22T14:46:32;18.70;49.50
43320;DHT22;28914;48.722;9.332;2023-02-22T14:51:59;18.60;49.70
43320;DHT22;28914;48.722;9.332;2023-02-22T14:57:26;18.50;50.10
43320;DHT22;28914;48.722;9.332;2023-02-22T15:02:50;18.40;50.40
43320;DHT22;28914;48.722;9.332;2023-02-22T15:08:17;18.40;50.70
43320;DHT22;28914;48.722;9.332;2023-02-22T15:13:50;18.30;50.90
43320;DHT22;28914;48.722;9.332;2023-02-22T15:19:10;18.30;51.30
43320;DHT22;28914;48.722;9.332;2023-02-22T15:24:32;18.30;51.50
43320;DHT22;28914;48.722;9.332;2023-02-22T15:29:58;18.30;51.60
43320;DHT22;28914;48.722;9.332;2023-02-22T15:35:26;18.40;51.70
43320;DHT22;28914;48.722;9.332;2023-02-22T15:40:54;18.40;51.70
43320;DHT22;28914;48.722;9.332;2023-02-22T15:46:16;18.40;51.70
43320;DHT22;28914;48.722;9.332;2023-02-22T15:51:37;18.30;52.20
43320;DHT22;28914;48.722;9.332;2023-02-22T15:56:57;18.20;51.50
43320;DHT22;28914;48.722;9.332;2023-02-22T16:02:32;18.10;51.60
43320;DHT22;28914;48.722;9.332;2023-02-22T16:07:52;18.00;52.00
43320;DHT22;28914;48.722;9.332;2023-02-22T16:13:19;17.90;52.10
43320;DHT22;28914;48.722;9.332;2023-02-22T16:18:39;17.80;52.50
43320;DHT22;28914;48.722;9.332;2023-02-22T16:23:59;17.70;52.70
43320;DHT22;28914;48.722;9.332;2023-02-22T16:29:25;17.50;52.80
43320;DHT22;28914;48.722;9.332;2023-02-22T16:34:44;17.40;53.20
43320;DHT22;28914;48.722;9.332;2023-02-22T16:40:08;17.20;53.40
43320;DHT22;28914;48.722;9.332;2023-02-22T16:45:32;17.10;53.80
43320;DHT22;28914;48.722;9.332;2023-02-22T16:50:52;16.70;54.00
43320;DHT22;28914;48.722;9.332;2023-02-22T16:56:13;16.60;54.20
43320;DHT22;28914;48.722;9.332;2023-02-22T17:01:34;16.40;54.60
43320;DHT22;28914;48.722;9.332;2023-02-22T17:06:53;16.30;55.00
43320;DHT22;28914;48.722;9.332;2023-02-22T17:12:13;16.10;55.50
43320;DHT22;28914;48.722;9.332;2023-02-22T17:17:32;15.90;55.60
43320;DHT22;28914;48.722;9.332;2023-02-22T17:22:51;15.70;55.90
43320;DHT22;28914;48.722;9.332;2023-02-22T17:28:11;15.60;56.30
43320;DHT22;28914;48.722;9.332;2023-02-22T17:33:33;15.50;56.90
43320;DHT22;28914;48.722;9.332;2023-02-22T17:38:53;15.40;57.00
43320;DHT22;28914;48.722;9.332;2023-02-22T17:44:12;15.30;57.40
43320;DHT22;28914;48.722;9.332;2023-02-22T17:49:31;15.20;57.50
43320;DHT22;28914;48.722;9.332;2023-02-22T17:54:51;15.10;57.60
43320;DHT22;28914;48.722;9.332;2023-02-22T18:00:13;15.00;58.00
43320;DHT22;28914;48.722;9.332;2023-02-22T18:05:42;14.80;58.40
43320;DHT22;28914;48.722;9.332;2023-02-22T18:11:04;14.70;58.50
43320;DHT22;28914;48.722;9.332;2023-02-22T18:16:24;14.60;58.50
43320;DHT22;28914;48.722;9.332;2023-02-22T18:21:44;14.40;58.60
43320;DHT22;28914;48.722;9.332;2023-02-22T18:27:04;14.30;58.80
43320;DHT22;28914;48.722;9.332;2023-02-22T18:32:26;14.10;58.90
43320;DHT22;28914;48.722;9.332;2023-02-22T18:37:48;14.00;59.00
43320;DHT22;28914;48.722;9.332;2023-02-22T18:43:08;13.80;59.20
43320;DHT22;28914;48.722;9.332;2023-02-22T18:48:27;13.70;59.60
43320;DHT22;28914;48.722;9.332;2023-02-22T18:53:46;13.50;59.80
43320;DHT22;28914;48.722;9.332;2023-02-22T18:59:09;13.40;60.30
43320;DHT22;28914;48.722;9.332;2023-02-22T19:04:30;13.30;60.80
43320;DHT22;28914;48.722;9.332;2023-02-22T19:09:49;13.20;60.70
43320;DHT22;28914;48.722;9.332;2023-02-22T19:15:09;13.00;61.00
43320;DHT22;28914;48.722;9.332;2023-02-22T19:20:29;13.00;61.20
43320;DHT22;28914;48.722;9.332;2023-02-22T19:25:51;12.90;61.50
43320;DHT22;28914;48.722;9.332;2023-02-22T19:31:19;12.80;61.80
43320;DHT22;28914;48.722;9.332;2023-02-22T19:36:40;12.70;62.40
43320;DHT22;28914;48.722;9.332;2023-02-22T19:42:01;12.60;62.30
43320;DHT22;28914;48.722;9.332;2023-02-22T19:47:22;12.50;62.60
43320;DHT22;28914;48.722;9.332;2023-02-22T19:52:41;12.50;62.80
43320;DHT22;28914;48.722;9.332;2023-02-22T19:58:00;12.50;63.10
43320;DHT22;28914;48.722;9.332;2023-02-22T20:03:20;12.40;63.10
43320;DHT22;28914;48.722;9.332;2023-02-22T20:08:42;12.40;64.10
43320;DHT22;28914;48.722;9.332;2023-02-22T20:14:02;12.30;63.80
43320;DHT22;28914;48.722;9.332;2023-02-22T20:19:25;12.30;63.90
43320;DHT22;28914;48.722;9.332;2023-02-22T20:24:45;12.30;64.10
43320;DHT22;28914;48.722;9.332;2023-02-22T20:30:05;12.20;64.20
43320;DHT22;28914;48.722;9.332;2023-02-22T20:35:26;12.20;64.70
43320;DHT22;28914;48.722;9.332;2023-02-22T20:40:46;12.10;65.10
43320;DHT22;28914;48.722;9.332;2023-02-22T20:46:06;12.00;64.90
43320;DHT22;28914;48.722;9.332;2023-02-22T20:51:26;12.00;65.50
43320;DHT22;28914;48.722;9.332;2023-02-22T20:56:46;11.90;65.20
43320;DHT22;28914;48.722;9.332;2023-02-22T21:02:05;11.90;65.50
43320;DHT22;28914;48.722;9.332;2023-02-22T21:07:25;11.80;66.20
43320;DHT22;28914;48.722;9.332;2023-02-22T21:12:44;11.80;65.40
43320;DHT22;28914;48.722;9.332;2023-02-22T21:18:05;11.70;65.70
43320;DHT22;28914;48.722;9.332;2023-02-22T21:23:25;11.60;66.10
43320;DHT22;28914;48.722;9.332;2023-02-22T21:28:44;11.50;66.00
43320;DHT22;28914;48.722;9.332;2023-02-22T21:34:03;11.40;66.00
43320;DHT22;28914;48.722;9.332;2023-02-22T21:39:22;11.30;66.50
43320;DHT22;28914;48.722;9.332;2023-02-22T21:44:46;11.20;66.80
43320;DHT22;28914;48.722;9.332;2023-02-22T21:50:06;11.10;67.00
43320;DHT22;28914;48.722;9.332;2023-02-22T21:55:28;11.00;67.00
43320;DHT22;28914;48.722;9.332;2023-02-22T22:00:48;10.90;67.00
43320;DHT22;28914;48.722;9.332;2023-02-22T22:06:07;10.90;67.20
43320;DHT22;28914;48.722;9.332;2023-02-22T22:11:30;10.80;67.20
43320;DHT22;28914;48.722;9.332;2023-02-22T22:16:51;10.70;67.90
43320;DHT22;28914;48.722;9.332;2023-02-22T22:22:11;10.60;67.80
43320;DHT22;28914;48.722;9.332;2023-02-22T22:27:30;10.50;67.90
43320;DHT22;28914;48.722;9.332;2023-02-22T22:32:50;10.50;68.20
43320;DHT22;28914;48.722;9.332;2023-02-22T22:38:09;10.40;68.30
43320;DHT22;28914;48.722;9.332;2023-02-22T22:43:29;10.40;68.30
43320;DHT22;28914;48.722;9.332;2023-02-22T22:48:48;10.40;68.70
43320;DHT22;28914;48.722;9.332;2023-02-22T22:54:08;10.30;69.40
43320;DHT22;28914;48.722;9.332;2023-02-22T22:59:28;10.30;69.20
43320;DHT22;28914;48.722;9.332;2023-02-22T23:04:51;10.30;69.40
43320;DHT22;28914;48.722;9.332;2023-02-22T23:10:10;10.30;69.80
43320;DHT22;28914;48.722;9.332;2023-02-22T23:15:30;10.30;69.90
43320;DHT22;28914;48.722;9.332;2023-02-22T23:20:50;10.40;70.60
43320;DHT22;28914;48.722;9.332;2023-02-22T23:26:13;10.40;70.80
43320;DHT22;28914;48.722;9.332;2023-02-22T23:31:38;10.50;70.90
43320;DHT22;28914;48.722;9.332;2023-02-22T23:36:58;10.50;71.10
43320;DHT22;28914;48.722;9.332;2023-02-22T23:42:17;10.60;70.80
43320;DHT22;28914;48.722;9.332;2023-02-22T23:47:36;10.70;70.80
43320;DHT22;28914;48.722;9.332;2023-02-22T23:52:58;10.80;70.80
43320;DHT22;28914;48.722;9.332;2023-02-22T23:58:17;10.90;70.60
